Quetta Weather



Quetta's Current Weather

Temprature 0.61000000000001o clear sky

clear sky

Rain: 0 %

Min Temprature0.61000000000001o
Max Temprature0.61000000000001o
Humidity69
Wind Speed2.82 m/h
Sun Rise07:26:52
Sun Set18:00:22
Current Time: 23-Jan-2021 19:51:38
Lat/Lon: 30.199, 67.0097




Quetta's Geo Location



Quetta's Weather Forecast

Time Overall Temp Min Temp Max Temp Humidity Wind Speed Rain
23-Jan-2021 (Sat)
20:00:00 clear sky 2.200 0.610 2.200 60 2.82 m/h 0 %
23:00:00 clear sky 0.110 -0.880 0.110 69 1.96 m/h 0 %
24-Jan-2021 (Sun)
02:00:00 clear sky -1.220 -1.560 -1.220 72 1.61 m/h 0 %
05:00:00 clear sky -2.330 -2.380 -2.330 74 0.98 m/h 0 %
08:00:00 clear sky -1.900 -1.900 -1.900 72 1.35 m/h 0 %
11:00:00 clear sky 3.410 3.410 3.410 52 1.65 m/h 0 %
14:00:00 clear sky 6.620 6.620 6.620 42 2.06 m/h 0 %
17:00:00 clear sky 7.020 7.020 7.020 41 1.56 m/h 0 %
20:00:00 clear sky 3.120 3.120 3.120 58 0.85 m/h 0 %
23:00:00 clear sky 1.760 1.760 1.760 61 0.92 m/h 0 %
25-Jan-2021 (Mon)
02:00:00 clear sky 0.580 0.580 0.580 65 0.71 m/h 0 %
05:00:00 clear sky -0.150 -0.150 -0.150 68 0.72 m/h 0 %
08:00:00 clear sky 0.170 0.170 0.170 68 0.65 m/h 0 %
11:00:00 clear sky 6.580 6.580 6.580 41 1.32 m/h 0 %
14:00:00 clear sky 9.020 9.020 9.020 34 2.2 m/h 0 %
17:00:00 clear sky 8.680 8.680 8.680 35 2.13 m/h 0 %
20:00:00 clear sky 4.210 4.210 4.210 54 1.35 m/h 0 %
23:00:00 clear sky 2.050 2.050 2.050 62 0.84 m/h 0 %
26-Jan-2021 (Tue)
02:00:00 clear sky 0.690 0.690 0.690 65 1.02 m/h 0 %
05:00:00 clear sky 0.080 0.080 0.080 66 0.87 m/h 0 %
08:00:00 clear sky 0.320 0.320 0.320 65 0.65 m/h 0 %
11:00:00 clear sky 6.400 6.400 6.400 40 1.48 m/h 0 %
14:00:00 clear sky 8.990 8.990 8.990 33 2.24 m/h 0 %
17:00:00 clear sky 8.850 8.850 8.850 34 1.88 m/h 0 %
20:00:00 clear sky 4.530 4.530 4.530 52 1.1 m/h 0 %
23:00:00 clear sky 2.440 2.440 2.440 60 0.63 m/h 0 %
27-Jan-2021 (Wed)
02:00:00 clear sky 1.100 1.100 1.100 64 0.36 m/h 0 %
05:00:00 clear sky 0.300 0.300 0.300 65 0.44 m/h 0 %
08:00:00 clear sky 0.690 0.690 0.690 62 0.15 m/h 0 %
11:00:00 clear sky 7.260 7.260 7.260 36 0.98 m/h 0 %
14:00:00 clear sky 9.880 9.880 9.880 31 1.89 m/h 0 %
17:00:00 clear sky 9.880 9.880 9.880 32 1.82 m/h 0 %
20:00:00 clear sky 5.190 5.190 5.190 50 0.93 m/h 0 %
23:00:00 clear sky 3.180 3.180 3.180 56 0.52 m/h 0 %
28-Jan-2021 (Thu)
02:00:00 clear sky 1.870 1.870 1.870 60 0.59 m/h 0 %
05:00:00 clear sky 0.920 0.920 0.920 61 0.34 m/h 0 %
08:00:00 clear sky 1.520 1.520 1.520 59 0.14 m/h 0 %
11:00:00 clear sky 8.650 8.650 8.650 34 1.06 m/h 0 %
14:00:00 clear sky 11.200 11.200 11.200 28 1.99 m/h 0 %
17:00:00 clear sky 11.210 11.210 11.210 29 2.01 m/h 0 %

Famous Cities (60)